PWSweather.com
Personal Weather Stations
Station Observations
KOHCLEVE171
Cleveland, OH

Cleveland, OH

Lat: 41.48646164, Lon: -81.46408081

Elevation: 1059

Station Type:

High Low Average
Temperature 32.7°F0.4°C 22.1°F-5.5°C 28.5°F-1.9°C
Dew Point 29.3°F-1.5°C 16.5°F-8.6°C 24.4°F-4.2°C
Winds 6.7 mph 10.8 kmh Calm Calm 2.0 mph SSE3.2 kmh SSE
Wind Gusts 12.8 mph20.6 kmh -- 5.0 mph8.0 kmh
Humidity 93% 73% 84%
Pressure 30.40 in1029.5 mb 30.06 in1017.9 mb -
Precipitation 0.00 in0.0 mm - -
Hour Temp Dew Point Humidity Winds Wind Gusts Pressure Precip Precip Rate Daily Precip Total
12:04 AM 25.3°F-3.7°C 22.8°F-5.1°C 90% 6.5 mph S10.5 kmh S 9.6 mph15.4 kmh 30.09 in1019.0 mb 0.00 in0.0 mm 0.00 in0.0 mm 0.00 in0.0 mm
12:09 AM 25.3°F-3.7°C 22.8°F-5.1°C 90% 3.1 mph SSW5.0 kmh SSW 4.3 mph6.9 kmh 30.09 in1019.0 mb 0.00 in0.0 mm 0.00 in0.0 mm 0.00 in0.0 mm
12:14 AM 25.5°F-3.6°C 23.0°F-5.0°C 90% 2.9 mph S4.7 kmh S 4.9 mph7.9 kmh 30.09 in1019.0 mb 0.00 in0.0 mm 0.00 in0.0 mm 0.00 in0.0 mm
12:19 AM 25.5°F-3.6°C 23.0°F-5.0°C 90% 3.4 mph S5.5 kmh S 4.7 mph7.6 kmh 30.09 in1019.0 mb 0.00 in0.0 mm 0.00 in0.0 mm 0.00 in0.0 mm
12:24 AM 25.7°F-3.5°C 23.2°F-4.9°C 90% 7.6 mph SSW12.2 kmh SSW 11.4 mph18.3 kmh 30.09 in1019.0 mb 0.00 in0.0 mm 0.00 in0.0 mm 0.00 in0.0 mm
12:29 AM 25.7°F-3.5°C 23.2°F-4.9°C 90% 2.0 mph S3.2 kmh S 2.9 mph4.7 kmh 30.09 in1019.0 mb 0.00 in0.0 mm 0.00 in0.0 mm 0.00 in0.0 mm
12:34 AM 25.7°F-3.5°C 23.2°F-4.9°C 90% 3.8 mph S6.1 kmh S 5.4 mph8.7 kmh 30.09 in1019.0 mb 0.00 in0.0 mm 0.00 in0.0 mm 0.00 in0.0 mm
12:39 AM 25.9°F-3.4°C 23.4°F-4.8°C 90% 4.7 mph S7.6 kmh S 6.7 mph10.8 kmh 30.09 in1019.0 mb 0.00 in0.0 mm 0.00 in0.0 mm 0.00 in0.0 mm
12:44 AM 25.9°F-3.4°C 23.4°F-4.8°C 90% 3.6 mph SSW5.8 kmh SSW 5.1 mph8.2 kmh 30.09 in1019.0 mb 0.00 in0.0 mm 0.00 in0.0 mm 0.00 in0.0 mm
12:49 AM 25.9°F-3.4°C 23.4°F-4.8°C 90% 3.6 mph SSW5.8 kmh SSW 5.6 mph9.0 kmh 30.08 in1018.6 mb 0.00 in0.0 mm 0.00 in0.0 mm 0.00 in0.0 mm
12:54 AM 26.1°F-3.3°C 23.7°F-4.6°C 91% 3.1 mph S5.0 kmh S 5.1 mph8.2 kmh 30.08 in1018.6 mb 0.00 in0.0 mm 0.00 in0.0 mm 0.00 in0.0 mm
01:04 AM 26.2°F-3.2°C 23.7°F-4.6°C 90% 3.1 mph SW5.0 kmh SW 4.7 mph7.6 kmh 30.08 in1018.6 mb 0.00 in0.0 mm 0.00 in0.0 mm 0.00 in0.0 mm
01:09 AM 26.2°F-3.2°C 23.7°F-4.6°C 90% 2.7 mph SW4.3 kmh SW 4.3 mph6.9 kmh 30.09 in1019.0 mb 0.00 in0.0 mm 0.00 in0.0 mm 0.00 in0.0 mm
01:14 AM 26.4°F-3.1°C 24.1°F-4.4°C 91% 2.5 mph SW4.0 kmh SW 5.8 mph9.3 kmh 30.08 in1018.6 mb 0.00 in0.0 mm 0.00 in0.0 mm 0.00 in0.0 mm
01:19 AM 26.4°F-3.1°C 24.1°F-4.4°C 91% 4.7 mph S7.6 kmh S 5.8 mph9.3 kmh 30.09 in1019.0 mb 0.00 in0.0 mm 0.00 in0.0 mm 0.00 in0.0 mm
01:23 AM 26.4°F-3.1°C 24.1°F-4.4°C 91% 2.2 mph SSW3.5 kmh SSW 3.8 mph6.1 kmh 30.09 in1019.0 mb 0.00 in0.0 mm 0.00 in0.0 mm 0.00 in0.0 mm
01:28 AM 26.4°F-3.1°C 24.1°F-4.4°C 91% 2.7 mph S4.3 kmh S 5.8 mph9.3 kmh 30.08 in1018.6 mb 0.00 in0.0 mm 0.00 in0.0 mm 0.00 in0.0 mm
01:33 AM 26.6°F-3.0°C 24.3°F-4.3°C 91% 2.2 mph SSE3.5 kmh SSE 3.4 mph5.5 kmh 30.08 in1018.6 mb 0.00 in0.0 mm 0.00 in0.0 mm 0.00 in0.0 mm
01:38 AM 26.6°F-3.0°C 24.3°F-4.3°C 91% 4.9 mph S7.9 kmh S 6.5 mph10.5 kmh 30.07 in1018.3 mb 0.00 in0.0 mm 0.00 in0.0 mm 0.00 in0.0 mm
01:43 AM 26.8°F-2.9°C 24.4°F-4.2°C 91% 2.0 mph SSW3.2 kmh SSW 5.4 mph8.7 kmh 30.07 in1018.3 mb 0.00 in0.0 mm 0.00 in0.0 mm 0.00 in0.0 mm
01:48 AM 26.8°F-2.9°C 24.4°F-4.2°C 91% 2.2 mph SSW3.5 kmh SSW 4.5 mph7.2 kmh 30.07 in1018.3 mb 0.00 in0.0 mm 0.00 in0.0 mm 0.00 in0.0 mm
01:53 AM 27.0°F-2.8°C 24.6°F-4.1°C 91% 3.8 mph S6.1 kmh S 6.5 mph10.5 kmh 30.07 in1018.3 mb 0.00 in0.0 mm 0.00 in0.0 mm 0.00 in0.0 mm
01:58 AM 27.1°F-2.7°C 25.3°F-3.7°C 93% 3.4 mph SW5.5 kmh SW 5.6 mph9.0 kmh 30.07 in1018.3 mb 0.00 in0.0 mm 0.00 in0.0 mm 0.00 in0.0 mm
02:03 AM 27.3°F-2.6°C 25.5°F-3.6°C 93% 4.5 mph SSW7.2 kmh SSW 6.3 mph10.1 kmh 30.06 in1017.9 mb 0.00 in0.0 mm 0.00 in0.0 mm 0.00 in0.0 mm
02:08 AM 27.3°F-2.6°C 25.5°F-3.6°C 93% 2.9 mph SSE4.7 kmh SSE 6.3 mph10.1 kmh 30.06 in1017.9 mb 0.00 in0.0 mm 0.00 in0.0 mm 0.00 in0.0 mm
02:13 AM 27.5°F-2.5°C 25.7°F-3.5°C 93% 1.6 mph WSW2.6 kmh WSW 3.6 mph5.8 kmh 30.06 in1017.9 mb 0.00 in0.0 mm 0.00 in0.0 mm 0.00 in0.0 mm
02:18 AM 27.7°F-2.4°C 25.9°F-3.4°C 93% 2.5 mph SW4.0 kmh SW 5.6 mph9.0 kmh 30.06 in1017.9 mb 0.00 in0.0 mm 0.00 in0.0 mm 0.00 in0.0 mm
02:23 AM 27.7°F-2.4°C 25.9°F-3.4°C 93% 4.5 mph S7.2 kmh S 11.0 mph17.7 kmh 30.06 in1017.9 mb 0.00 in0.0 mm 0.00 in0.0 mm 0.00 in0.0 mm
02:28 AM 27.9°F-2.3°C 26.1°F-3.3°C 93% 2.9 mph SSW4.7 kmh SSW 7.8 mph12.6 kmh 30.06 in1017.9 mb 0.00 in0.0 mm 0.00 in0.0 mm 0.00 in0.0 mm
02:33 AM 28.0°F-2.2°C 26.2°F-3.2°C 93% 4.0 mph SW6.4 kmh SW 10.5 mph16.9 kmh 30.06 in1017.9 mb 0.00 in0.0 mm 0.00 in0.0 mm 0.00 in0.0 mm
02:38 AM 28.0°F-2.2°C 26.2°F-3.2°C 93% 2.2 mph SSE3.5 kmh SSE 5.4 mph8.7 kmh 30.07 in1018.3 mb 0.00 in0.0 mm 0.00 in0.0 mm 0.00 in0.0 mm
02:43 AM 28.2°F-2.1°C 26.4°F-3.1°C 93% 0.4 mph NE0.6 kmh NE 1.8 mph2.9 kmh 30.07 in1018.3 mb 0.00 in0.0 mm 0.00 in0.0 mm 0.00 in0.0 mm
02:48 AM 28.4°F-2.0°C 26.6°F-3.0°C 93% 5.4 mph S8.7 kmh S 11.9 mph19.2 kmh 30.07 in1018.3 mb 0.00 in0.0 mm 0.00 in0.0 mm 0.00 in0.0 mm
02:53 AM 28.4°F-2.0°C 26.6°F-3.0°C 93% 2.0 mph S3.2 kmh S 7.2 mph11.6 kmh 30.07 in1018.3 mb 0.00 in0.0 mm 0.00 in0.0 mm 0.00 in0.0 mm
02:58 AM 28.6°F-1.9°C 26.8°F-2.9°C 93% 3.6 mph WSW5.8 kmh WSW 6.5 mph10.5 kmh 30.07 in1018.3 mb 0.00 in0.0 mm 0.00 in0.0 mm 0.00 in0.0 mm
03:03 AM 28.6°F-1.9°C 26.8°F-2.9°C 93% 2.7 mph SSW4.3 kmh SSW 5.4 mph8.7 kmh 30.07 in1018.3 mb 0.00 in0.0 mm 0.00 in0.0 mm 0.00 in0.0 mm
03:08 AM 28.6°F-1.9°C 26.8°F-2.9°C 93% 4.7 mph S7.6 kmh S 10.7 mph17.2 kmh 30.07 in1018.3 mb 0.00 in0.0 mm 0.00 in0.0 mm 0.00 in0.0 mm
03:13 AM 28.8°F-1.8°C 27.0°F-2.8°C 93% 2.9 mph NNW4.7 kmh NNW 7.2 mph11.6 kmh 30.08 in1018.6 mb 0.00 in0.0 mm 0.00 in0.0 mm 0.00 in0.0 mm
03:18 AM 28.8°F-1.8°C 27.0°F-2.8°C 93% 2.5 mph WSW4.0 kmh WSW 5.6 mph9.0 kmh 30.08 in1018.6 mb 0.00 in0.0 mm 0.00 in0.0 mm 0.00 in0.0 mm
03:23 AM 28.9°F-1.7°C 27.1°F-2.7°C 93% 2.2 mph SSW3.5 kmh SSW 4.7 mph7.6 kmh 30.08 in1018.6 mb 0.00 in0.0 mm 0.00 in0.0 mm 0.00 in0.0 mm
03:28 AM 28.9°F-1.7°C 27.1°F-2.7°C 93% 3.6 mph WSW5.8 kmh WSW 7.2 mph11.6 kmh 30.08 in1018.6 mb 0.00 in0.0 mm 0.00 in0.0 mm 0.00 in0.0 mm
03:33 AM 29.1°F-1.6°C 27.3°F-2.6°C 93% 2.7 mph SSW4.3 kmh SSW 4.7 mph7.6 kmh 30.09 in1019.0 mb 0.00 in0.0 mm 0.00 in0.0 mm 0.00 in0.0 mm
03:38 AM 29.1°F-1.6°C 27.3°F-2.6°C 93% 1.8 mph SW2.9 kmh SW 4.3 mph6.9 kmh 30.09 in1019.0 mb 0.00 in0.0 mm 0.00 in0.0 mm 0.00 in0.0 mm
03:43 AM 29.1°F-1.6°C 27.3°F-2.6°C 93% 2.0 mph ENE3.2 kmh ENE 6.5 mph10.5 kmh 30.09 in1019.0 mb 0.00 in0.0 mm 0.00 in0.0 mm 0.00 in0.0 mm
03:48 AM 29.1°F-1.6°C 27.3°F-2.6°C 93% 2.0 mph W3.2 kmh W 3.6 mph5.8 kmh 30.09 in1019.0 mb 0.00 in0.0 mm 0.00 in0.0 mm 0.00 in0.0 mm
03:53 AM 29.3°F-1.5°C 27.5°F-2.5°C 93% 3.8 mph W6.1 kmh W 7.4 mph11.9 kmh 30.09 in1019.0 mb 0.00 in0.0 mm 0.00 in0.0 mm 0.00 in0.0 mm
03:58 AM 29.3°F-1.5°C 27.5°F-2.5°C 93% 2.9 mph WNW4.7 kmh WNW 5.8 mph9.3 kmh 30.09 in1019.0 mb 0.00 in0.0 mm 0.00 in0.0 mm 0.00 in0.0 mm
04:03 AM 29.5°F-1.4°C 27.7°F-2.4°C 93% 2.0 mph N3.2 kmh N 4.5 mph7.2 kmh 30.09 in1019.0 mb 0.00 in0.0 mm 0.00 in0.0 mm 0.00 in0.0 mm
04:08 AM 29.5°F-1.4°C 27.7°F-2.4°C 93% 3.6 mph NW5.8 kmh NW 6.3 mph10.1 kmh 30.09 in1019.0 mb 0.00 in0.0 mm 0.00 in0.0 mm 0.00 in0.0 mm
04:13 AM 29.5°F-1.4°C 27.1°F-2.7°C 91% 1.8 mph NE2.9 kmh NE 3.6 mph5.8 kmh 30.09 in1019.0 mb 0.00 in0.0 mm 0.00 in0.0 mm 0.00 in0.0 mm
04:18 AM 29.5°F-1.4°C 27.1°F-2.7°C 91% 2.9 mph SW4.7 kmh SW 7.2 mph11.6 kmh 30.10 in1019.3 mb 0.00 in0.0 mm 0.00 in0.0 mm 0.00 in0.0 mm
04:23 AM 29.5°F-1.4°C 27.1°F-2.7°C 91% 3.4 mph WSW5.5 kmh WSW 6.5 mph10.5 kmh 30.10 in1019.3 mb 0.00 in0.0 mm 0.00 in0.0 mm 0.00 in0.0 mm
04:28 AM 29.5°F-1.4°C 27.1°F-2.7°C 91% 3.6 mph W5.8 kmh W 9.8 mph15.8 kmh 30.10 in1019.3 mb 0.00 in0.0 mm 0.00 in0.0 mm 0.00 in0.0 mm
04:33 AM 29.5°F-1.4°C 27.1°F-2.7°C 91% 2.5 mph NW4.0 kmh NW 5.4 mph8.7 kmh 30.10 in1019.3 mb 0.00 in0.0 mm 0.00 in0.0 mm 0.00 in0.0 mm
04:38 AM 29.5°F-1.4°C 27.1°F-2.7°C 91% 1.8 mph NW2.9 kmh NW 3.6 mph5.8 kmh 30.10 in1019.3 mb 0.00 in0.0 mm 0.00 in0.0 mm 0.00 in0.0 mm
04:43 AM 29.5°F-1.4°C 27.1°F-2.7°C 91% 2.2 mph WSW3.5 kmh WSW 5.1 mph8.2 kmh 30.10 in1019.3 mb 0.00 in0.0 mm 0.00 in0.0 mm 0.00 in0.0 mm
04:48 AM 29.5°F-1.4°C 27.1°F-2.7°C 91% 2.5 mph WNW4.0 kmh WNW 4.9 mph7.9 kmh 30.10 in1019.3 mb 0.00 in0.0 mm 0.00 in0.0 mm 0.00 in0.0 mm
04:53 AM 29.5°F-1.4°C 27.1°F-2.7°C 91% 4.0 mph SW6.4 kmh SW 7.6 mph12.2 kmh 30.10 in1019.3 mb 0.00 in0.0 mm 0.00 in0.0 mm 0.00 in0.0 mm
04:58 AM 29.5°F-1.4°C 27.0°F-2.8°C 90% 3.6 mph WNW5.8 kmh WNW 10.3 mph16.6 kmh 30.10 in1019.3 mb 0.00 in0.0 mm 0.00 in0.0 mm 0.00 in0.0 mm
05:03 AM 29.5°F-1.4°C 27.0°F-2.8°C 90% 1.8 mph W2.9 kmh W 2.9 mph4.7 kmh 30.10 in1019.3 mb 0.00 in0.0 mm 0.00 in0.0 mm 0.00 in0.0 mm
05:08 AM 29.5°F-1.4°C 27.0°F-2.8°C 90% 2.0 mph NNW3.2 kmh NNW 4.5 mph7.2 kmh 30.10 in1019.3 mb 0.00 in0.0 mm 0.00 in0.0 mm 0.00 in0.0 mm
05:13 AM 29.3°F-1.5°C 26.8°F-2.9°C 90% 5.6 mph NNW9.0 kmh NNW 11.6 mph18.7 kmh 30.10 in1019.3 mb 0.00 in0.0 mm 0.00 in0.0 mm 0.00 in0.0 mm
05:18 AM 29.3°F-1.5°C 26.8°F-2.9°C 90% 3.1 mph N5.0 kmh N 4.5 mph7.2 kmh 30.11 in1019.6 mb 0.00 in0.0 mm 0.00 in0.0 mm 0.00 in0.0 mm
05:23 AM 29.1°F-1.6°C 26.8°F-2.9°C 91% 1.6 mph NNE2.6 kmh NNE 4.3 mph6.9 kmh 30.11 in1019.6 mb 0.00 in0.0 mm 0.00 in0.0 mm 0.00 in0.0 mm
05:28 AM 28.9°F-1.7°C 26.4°F-3.1°C 90% 4.3 mph N6.9 kmh N 6.9 mph11.1 kmh 30.11 in1019.6 mb 0.00 in0.0 mm 0.00 in0.0 mm 0.00 in0.0 mm
05:33 AM 28.8°F-1.8°C 26.2°F-3.2°C 90% 4.3 mph NW6.9 kmh NW 6.7 mph10.8 kmh 30.11 in1019.6 mb 0.00 in0.0 mm 0.00 in0.0 mm 0.00 in0.0 mm
05:38 AM 28.6°F-1.9°C 26.1°F-3.3°C 90% 6.5 mph NNW10.5 kmh NNW 12.8 mph20.6 kmh 30.11 in1019.6 mb 0.00 in0.0 mm 0.00 in0.0 mm 0.00 in0.0 mm
05:43 AM 28.6°F-1.9°C 26.1°F-3.3°C 90% 3.1 mph NW5.0 kmh NW 6.9 mph11.1 kmh 30.11 in1019.6 mb 0.00 in0.0 mm 0.00 in0.0 mm 0.00 in0.0 mm
05:48 AM 28.6°F-1.9°C 26.1°F-3.3°C 90% 2.2 mph NW3.5 kmh NW 5.8 mph9.3 kmh 30.11 in1019.6 mb 0.00 in0.0 mm 0.00 in0.0 mm 0.00 in0.0 mm
05:53 AM 28.6°F-1.9°C 26.2°F-3.2°C 91% 2.9 mph NNW4.7 kmh NNW 7.8 mph12.6 kmh 30.11 in1019.6 mb 0.00 in0.0 mm 0.00 in0.0 mm 0.00 in0.0 mm
05:58 AM 28.4°F-2.0°C 26.1°F-3.3°C 91% 2.7 mph N4.3 kmh N 4.7 mph7.6 kmh 30.12 in1020.0 mb 0.00 in0.0 mm 0.00 in0.0 mm 0.00 in0.0 mm
06:03 AM 28.4°F-2.0°C 26.1°F-3.3°C 91% 3.6 mph NNW5.8 kmh NNW 8.9 mph14.3 kmh 30.12 in1020.0 mb 0.00 in0.0 mm 0.00 in0.0 mm 0.00 in0.0 mm
06:08 AM 28.4°F-2.0°C 26.1°F-3.3°C 91% 2.7 mph NW4.3 kmh NW 4.7 mph7.6 kmh 30.12 in1020.0 mb 0.00 in0.0 mm 0.00 in0.0 mm 0.00 in0.0 mm
06:13 AM 28.4°F-2.0°C 26.1°F-3.3°C 91% 3.4 mph N5.5 kmh N 5.6 mph9.0 kmh 30.12 in1020.0 mb 0.00 in0.0 mm 0.00 in0.0 mm 0.00 in0.0 mm
06:18 AM 28.4°F-2.0°C 26.1°F-3.3°C 91% 1.8 mph WSW2.9 kmh WSW 3.8 mph6.1 kmh 30.12 in1020.0 mb 0.00 in0.0 mm 0.00 in0.0 mm 0.00 in0.0 mm
06:23 AM 28.4°F-2.0°C 26.1°F-3.3°C 91% 4.9 mph WNW7.9 kmh WNW 9.6 mph15.4 kmh 30.12 in1020.0 mb 0.00 in0.0 mm 0.00 in0.0 mm 0.00 in0.0 mm
06:28 AM 28.4°F-2.0°C 26.1°F-3.3°C 91% 2.0 mph NW3.2 kmh NW 6.7 mph10.8 kmh 30.12 in1020.0 mb 0.00 in0.0 mm 0.00 in0.0 mm 0.00 in0.0 mm
06:33 AM 28.4°F-2.0°C 26.1°F-3.3°C 91% 2.7 mph NNW4.3 kmh NNW 8.3 mph13.4 kmh 30.12 in1020.0 mb 0.00 in0.0 mm 0.00 in0.0 mm 0.00 in0.0 mm
06:38 AM 28.4°F-2.0°C 25.9°F-3.4°C 90% 1.6 mph SSW2.6 kmh SSW 2.9 mph4.7 kmh 30.12 in1020.0 mb 0.00 in0.0 mm 0.00 in0.0 mm 0.00 in0.0 mm
06:43 AM 28.4°F-2.0°C 25.9°F-3.4°C 90% 3.6 mph SSE5.8 kmh SSE 8.1 mph13.0 kmh 30.12 in1020.0 mb 0.00 in0.0 mm 0.00 in0.0 mm 0.00 in0.0 mm
06:48 AM 28.6°F-1.9°C 26.1°F-3.3°C 90% 1.3 mph S2.1 kmh S 3.4 mph5.5 kmh 30.12 in1020.0 mb 0.00 in0.0 mm 0.00 in0.0 mm 0.00 in0.0 mm
06:53 AM 28.4°F-2.0°C 25.9°F-3.4°C 90% 1.8 mph SSW2.9 kmh SSW 4.5 mph7.2 kmh 30.12 in1020.0 mb 0.00 in0.0 mm 0.00 in0.0 mm 0.00 in0.0 mm
06:58 AM 28.4°F-2.0°C 25.5°F-3.6°C 89% 2.0 mph NNW3.2 kmh NNW 6.7 mph10.8 kmh 30.12 in1020.0 mb 0.00 in0.0 mm 0.00 in0.0 mm 0.00 in0.0 mm
07:03 AM 28.6°F-1.9°C 25.7°F-3.5°C 89% 2.0 mph WSW3.2 kmh WSW 3.4 mph5.5 kmh 30.12 in1020.0 mb 0.00 in0.0 mm 0.00 in0.0 mm 0.00 in0.0 mm
07:08 AM 28.6°F-1.9°C 25.7°F-3.5°C 89% 3.6 mph SSW5.8 kmh SSW 5.8 mph9.3 kmh 30.12 in1020.0 mb 0.00 in0.0 mm 0.00 in0.0 mm 0.00 in0.0 mm
07:13 AM 28.6°F-1.9°C 25.7°F-3.5°C 89% 3.4 mph W5.5 kmh W 5.6 mph9.0 kmh 30.12 in1020.0 mb 0.00 in0.0 mm 0.00 in0.0 mm 0.00 in0.0 mm
07:18 AM 28.6°F-1.9°C 25.7°F-3.5°C 89% 3.4 mph SW5.5 kmh SW 7.6 mph12.2 kmh 30.12 in1020.0 mb 0.00 in0.0 mm 0.00 in0.0 mm 0.00 in0.0 mm
07:23 AM 28.6°F-1.9°C 26.1°F-3.3°C 90% 3.1 mph S5.0 kmh S 6.0 mph9.7 kmh 30.12 in1020.0 mb 0.00 in0.0 mm 0.00 in0.0 mm 0.00 in0.0 mm
07:28 AM 28.6°F-1.9°C 26.1°F-3.3°C 90% 2.0 mph WSW3.2 kmh WSW 5.6 mph9.0 kmh 30.13 in1020.3 mb 0.00 in0.0 mm 0.00 in0.0 mm 0.00 in0.0 mm
07:33 AM 28.6°F-1.9°C 26.1°F-3.3°C 90% 3.6 mph S5.8 kmh S 4.9 mph7.9 kmh 30.13 in1020.3 mb 0.00 in0.0 mm 0.00 in0.0 mm 0.00 in0.0 mm
07:38 AM 28.6°F-1.9°C 26.1°F-3.3°C 90% 3.4 mph SW5.5 kmh SW 8.1 mph13.0 kmh 30.13 in1020.3 mb 0.00 in0.0 mm 0.00 in0.0 mm 0.00 in0.0 mm
07:43 AM 28.6°F-1.9°C 26.1°F-3.3°C 90% 2.7 mph SW4.3 kmh SW 4.5 mph7.2 kmh 30.14 in1020.7 mb 0.00 in0.0 mm 0.00 in0.0 mm 0.00 in0.0 mm
07:48 AM 28.6°F-1.9°C 26.1°F-3.3°C 90% 2.9 mph WSW4.7 kmh WSW 5.4 mph8.7 kmh 30.13 in1020.3 mb 0.00 in0.0 mm 0.00 in0.0 mm 0.00 in0.0 mm
07:53 AM 28.8°F-1.8°C 26.2°F-3.2°C 90% 3.1 mph WSW5.0 kmh WSW 6.7 mph10.8 kmh 30.14 in1020.7 mb 0.00 in0.0 mm 0.00 in0.0 mm 0.00 in0.0 mm
07:58 AM 28.8°F-1.8°C 26.2°F-3.2°C 90% 3.8 mph S6.1 kmh S 7.8 mph12.6 kmh 30.14 in1020.7 mb 0.00 in0.0 mm 0.00 in0.0 mm 0.00 in0.0 mm
08:03 AM 28.8°F-1.8°C 26.2°F-3.2°C 90% 1.3 mph SSW2.1 kmh SSW 2.5 mph4.0 kmh 30.14 in1020.7 mb 0.00 in0.0 mm 0.00 in0.0 mm 0.00 in0.0 mm
08:08 AM 28.8°F-1.8°C 26.2°F-3.2°C 90% 2.5 mph SW4.0 kmh SW 4.0 mph6.4 kmh 30.14 in1020.7 mb 0.00 in0.0 mm 0.00 in0.0 mm 0.00 in0.0 mm
08:13 AM 28.8°F-1.8°C 26.2°F-3.2°C 90% 6.0 mph S9.7 kmh S 10.7 mph17.2 kmh 30.14 in1020.7 mb 0.00 in0.0 mm 0.00 in0.0 mm 0.00 in0.0 mm
08:18 AM 28.9°F-1.7°C 26.4°F-3.1°C 90% 2.7 mph NW4.3 kmh NW 5.6 mph9.0 kmh 30.15 in1021.0 mb 0.00 in0.0 mm 0.00 in0.0 mm 0.00 in0.0 mm
08:23 AM 28.9°F-1.7°C 26.4°F-3.1°C 90% 3.1 mph S5.0 kmh S 6.7 mph10.8 kmh 30.15 in1021.0 mb 0.00 in0.0 mm 0.00 in0.0 mm 0.00 in0.0 mm
08:28 AM 28.9°F-1.7°C 26.4°F-3.1°C 90% 2.5 mph S4.0 kmh S 5.8 mph9.3 kmh 30.15 in1021.0 mb 0.00 in0.0 mm 0.00 in0.0 mm 0.00 in0.0 mm
08:33 AM 28.9°F-1.7°C 26.4°F-3.1°C 90% 1.8 mph W2.9 kmh W 7.4 mph11.9 kmh 30.15 in1021.0 mb 0.00 in0.0 mm 0.00 in0.0 mm 0.00 in0.0 mm
08:38 AM 28.9°F-1.7°C 26.4°F-3.1°C 90% 2.0 mph SW3.2 kmh SW 3.6 mph5.8 kmh 30.15 in1021.0 mb 0.00 in0.0 mm 0.00 in0.0 mm 0.00 in0.0 mm
08:43 AM 29.1°F-1.6°C 26.6°F-3.0°C 90% 2.9 mph NW4.7 kmh NW 4.9 mph7.9 kmh 30.16 in1021.3 mb 0.00 in0.0 mm 0.00 in0.0 mm 0.00 in0.0 mm
08:48 AM 29.1°F-1.6°C 26.6°F-3.0°C 90% 1.6 mph N2.6 kmh N 2.9 mph4.7 kmh 30.16 in1021.3 mb 0.00 in0.0 mm 0.00 in0.0 mm 0.00 in0.0 mm
08:53 AM 28.9°F-1.7°C 26.4°F-3.1°C 90% 0.9 mph NE1.4 kmh NE 2.0 mph3.2 kmh 30.16 in1021.3 mb 0.00 in0.0 mm 0.00 in0.0 mm 0.00 in0.0 mm
08:58 AM 29.1°F-1.6°C 26.6°F-3.0°C 90% 1.3 mph WSW2.1 kmh WSW 3.6 mph5.8 kmh 30.16 in1021.3 mb 0.00 in0.0 mm 0.00 in0.0 mm 0.00 in0.0 mm
09:03 AM 29.1°F-1.6°C 26.6°F-3.0°C 90% 1.8 mph E2.9 kmh E 3.1 mph5.0 kmh 30.16 in1021.3 mb 0.00 in0.0 mm 0.00 in0.0 mm 0.00 in0.0 mm
09:08 AM 29.1°F-1.6°C 26.6°F-3.0°C 90% 1.6 mph NNW2.6 kmh NNW 4.9 mph7.9 kmh 30.16 in1021.3 mb 0.00 in0.0 mm 0.00 in0.0 mm 0.00 in0.0 mm
09:13 AM 29.3°F-1.5°C 26.8°F-2.9°C 90% 2.0 mph S3.2 kmh S 6.3 mph10.1 kmh 30.16 in1021.3 mb 0.00 in0.0 mm 0.00 in0.0 mm 0.00 in0.0 mm
09:18 AM 29.1°F-1.6°C 26.6°F-3.0°C 90% 2.7 mph SSW4.3 kmh SSW 4.9 mph7.9 kmh 30.16 in1021.3 mb 0.00 in0.0 mm 0.00 in0.0 mm 0.00 in0.0 mm
09:23 AM 29.3°F-1.5°C 26.8°F-2.9°C 90% 1.3 mph SSW2.1 kmh SSW 3.4 mph5.5 kmh 30.16 in1021.3 mb 0.00 in0.0 mm 0.00 in0.0 mm 0.00 in0.0 mm
09:28 AM 29.3°F-1.5°C 26.8°F-2.9°C 90% 3.6 mph S5.8 kmh S 5.8 mph9.3 kmh 30.16 in1021.3 mb 0.00 in0.0 mm 0.00 in0.0 mm 0.00 in0.0 mm
09:33 AM 29.3°F-1.5°C 26.8°F-2.9°C 90% 2.5 mph SSW4.0 kmh SSW 4.0 mph6.4 kmh 30.16 in1021.3 mb 0.00 in0.0 mm 0.00 in0.0 mm 0.00 in0.0 mm
09:38 AM 29.3°F-1.5°C 26.8°F-2.9°C 90% 4.9 mph SSW7.9 kmh SSW 10.1 mph16.3 kmh 30.16 in1021.3 mb 0.00 in0.0 mm 0.00 in0.0 mm 0.00 in0.0 mm
09:43 AM 29.5°F-1.4°C 27.0°F-2.8°C 90% 1.1 mph S1.8 kmh S 2.9 mph4.7 kmh 30.16 in1021.3 mb 0.00 in0.0 mm 0.00 in0.0 mm 0.00 in0.0 mm
09:48 AM 29.5°F-1.4°C 27.0°F-2.8°C 90% 5.4 mph SSW8.7 kmh SSW 7.8 mph12.6 kmh 30.16 in1021.3 mb 0.00 in0.0 mm 0.00 in0.0 mm 0.00 in0.0 mm
09:53 AM 29.7°F-1.3°C 27.1°F-2.7°C 90% 2.2 mph SSE3.5 kmh SSE 3.1 mph5.0 kmh 30.16 in1021.3 mb 0.00 in0.0 mm 0.00 in0.0 mm 0.00 in0.0 mm
09:58 AM 29.7°F-1.3°C 27.1°F-2.7°C 90% 1.3 mph S2.1 kmh S 2.2 mph3.5 kmh 30.16 in1021.3 mb 0.00 in0.0 mm 0.00 in0.0 mm 0.00 in0.0 mm
10:03 AM 29.7°F-1.3°C 27.1°F-2.7°C 90% 4.7 mph SSW7.6 kmh SSW 10.7 mph17.2 kmh 30.16 in1021.3 mb 0.00 in0.0 mm 0.00 in0.0 mm 0.00 in0.0 mm
10:08 AM 29.7°F-1.3°C 27.1°F-2.7°C 90% 2.0 mph S3.2 kmh S 4.7 mph7.6 kmh 30.17 in1021.7 mb 0.00 in0.0 mm 0.00 in0.0 mm 0.00 in0.0 mm
10:13 AM 29.7°F-1.3°C 27.1°F-2.7°C 90% 4.0 mph SSW6.4 kmh SSW 6.3 mph10.1 kmh 30.17 in1021.7 mb 0.00 in0.0 mm 0.00 in0.0 mm 0.00 in0.0 mm
10:18 AM 29.8°F-1.2°C 27.3°F-2.6°C 90% 2.2 mph SW3.5 kmh SW 4.9 mph7.9 kmh 30.17 in1021.7 mb 0.00 in0.0 mm 0.00 in0.0 mm 0.00 in0.0 mm
10:23 AM 29.8°F-1.2°C 27.0°F-2.8°C 89% 4.3 mph S6.9 kmh S 7.8 mph12.6 kmh 30.17 in1021.7 mb 0.00 in0.0 mm 0.00 in0.0 mm 0.00 in0.0 mm
10:28 AM 29.8°F-1.2°C 27.0°F-2.8°C 89% 3.1 mph SSW5.0 kmh SSW 5.1 mph8.2 kmh 30.17 in1021.7 mb 0.00 in0.0 mm 0.00 in0.0 mm 0.00 in0.0 mm
10:33 AM 29.8°F-1.2°C 27.0°F-2.8°C 89% 1.8 mph SSW2.9 kmh SSW 3.6 mph5.8 kmh 30.17 in1021.7 mb 0.00 in0.0 mm 0.00 in0.0 mm 0.00 in0.0 mm
10:38 AM 29.8°F-1.2°C 27.0°F-2.8°C 89% 0.9 mph SSE1.4 kmh SSE 1.8 mph2.9 kmh 30.18 in1022.0 mb 0.00 in0.0 mm 0.00 in0.0 mm 0.00 in0.0 mm
10:43 AM 30.0°F-1.1°C 27.1°F-2.7°C 89% 2.0 mph SW3.2 kmh SW 3.8 mph6.1 kmh 30.18 in1022.0 mb 0.00 in0.0 mm 0.00 in0.0 mm 0.00 in0.0 mm
10:48 AM 30.0°F-1.1°C 27.1°F-2.7°C 89% 3.6 mph SW5.8 kmh SW 6.3 mph10.1 kmh 30.18 in1022.0 mb 0.00 in0.0 mm 0.00 in0.0 mm 0.00 in0.0 mm
10:53 AM 30.0°F-1.1°C 27.1°F-2.7°C 89% 2.7 mph SSW4.3 kmh SSW 3.6 mph5.8 kmh 30.18 in1022.0 mb 0.00 in0.0 mm 0.00 in0.0 mm 0.00 in0.0 mm
10:58 AM 30.2°F-1.0°C 27.3°F-2.6°C 89% 2.7 mph S4.3 kmh S 4.7 mph7.6 kmh 30.19 in1022.4 mb 0.00 in0.0 mm 0.00 in0.0 mm 0.00 in0.0 mm
11:03 AM 30.4°F-0.9°C 27.5°F-2.5°C 89% 3.1 mph SSW5.0 kmh SSW 5.6 mph9.0 kmh 30.19 in1022.4 mb 0.00 in0.0 mm 0.00 in0.0 mm 0.00 in0.0 mm
11:08 AM 30.4°F-0.9°C 27.5°F-2.5°C 89% 1.3 mph SSE2.1 kmh SSE 2.5 mph4.0 kmh 30.19 in1022.4 mb 0.00 in0.0 mm 0.00 in0.0 mm 0.00 in0.0 mm
11:13 AM 30.4°F-0.9°C 27.5°F-2.5°C 89% 2.7 mph W4.3 kmh W 5.6 mph9.0 kmh 30.19 in1022.4 mb 0.00 in0.0 mm 0.00 in0.0 mm 0.00 in0.0 mm
11:18 AM 30.7°F-0.7°C 27.9°F-2.3°C 89% 2.7 mph SW4.3 kmh SW 4.9 mph7.9 kmh 30.19 in1022.4 mb 0.00 in0.0 mm 0.00 in0.0 mm 0.00 in0.0 mm
11:23 AM 30.7°F-0.7°C 27.9°F-2.3°C 89% 2.7 mph WSW4.3 kmh WSW 4.7 mph7.6 kmh 30.19 in1022.4 mb 0.00 in0.0 mm 0.00 in0.0 mm 0.00 in0.0 mm
11:28 AM 30.6°F-0.8°C 27.7°F-2.4°C 89% 3.8 mph S6.1 kmh S 5.8 mph9.3 kmh 30.20 in1022.7 mb 0.00 in0.0 mm 0.00 in0.0 mm 0.00 in0.0 mm
11:33 AM 30.7°F-0.7°C 27.9°F-2.3°C 89% 3.6 mph SSW5.8 kmh SSW 5.8 mph9.3 kmh 30.20 in1022.7 mb 0.00 in0.0 mm 0.00 in0.0 mm 0.00 in0.0 mm
11:38 AM 30.7°F-0.7°C 27.9°F-2.3°C 89% 2.5 mph SE4.0 kmh SE 5.1 mph8.2 kmh 30.20 in1022.7 mb 0.00 in0.0 mm 0.00 in0.0 mm 0.00 in0.0 mm
11:43 AM 30.7°F-0.7°C 27.9°F-2.3°C 89% 1.6 mph S2.6 kmh S 2.7 mph4.3 kmh 30.20 in1022.7 mb 0.00 in0.0 mm 0.00 in0.0 mm 0.00 in0.0 mm
11:48 AM 30.9°F-0.6°C 28.0°F-2.2°C 89% 2.7 mph WSW4.3 kmh WSW 6.0 mph9.7 kmh 30.20 in1022.7 mb 0.00 in0.0 mm 0.00 in0.0 mm 0.00 in0.0 mm
11:53 AM 30.9°F-0.6°C 28.0°F-2.2°C 89% 3.8 mph SSW6.1 kmh SSW 8.3 mph13.4 kmh 30.20 in1022.7 mb 0.00 in0.0 mm 0.00 in0.0 mm 0.00 in0.0 mm
11:59 AM 31.1°F-0.5°C 28.2°F-2.1°C 89% 0.7 mph WNW1.1 kmh WNW 1.8 mph2.9 kmh 30.20 in1022.7 mb 0.00 in0.0 mm 0.00 in0.0 mm 0.00 in0.0 mm
12:03 PM 31.1°F-0.5°C 28.2°F-2.1°C 89% 1.8 mph S2.9 kmh S 5.8 mph9.3 kmh 30.20 in1022.7 mb 0.00 in0.0 mm 0.00 in0.0 mm 0.00 in0.0 mm
12:08 PM 31.5°F-0.3°C 28.4°F-2.0°C 88% 1.6 mph W2.6 kmh W 2.7 mph4.3 kmh 30.20 in1022.7 mb 0.00 in0.0 mm 0.00 in0.0 mm 0.00 in0.0 mm
12:13 PM 31.5°F-0.3°C 28.4°F-2.0°C 88% 1.1 mph SSW1.8 kmh SSW 2.2 mph3.5 kmh 30.20 in1022.7 mb 0.00 in0.0 mm 0.00 in0.0 mm 0.00 in0.0 mm
12:19 PM 31.5°F-0.3°C 28.4°F-2.0°C 88% 2.2 mph WSW3.5 kmh WSW 3.8 mph6.1 kmh 30.21 in1023.0 mb 0.00 in0.0 mm 0.00 in0.0 mm 0.00 in0.0 mm
12:24 PM 31.5°F-0.3°C 28.4°F-2.0°C 88% 2.5 mph S4.0 kmh S 6.0 mph9.7 kmh 30.21 in1023.0 mb 0.00 in0.0 mm 0.00 in0.0 mm 0.00 in0.0 mm
12:28 PM 31.5°F-0.3°C 28.4°F-2.0°C 88% 1.8 mph WSW2.9 kmh WSW 3.8 mph6.1 kmh 30.20 in1022.7 mb 0.00 in0.0 mm 0.00 in0.0 mm 0.00 in0.0 mm
12:33 PM 31.5°F-0.3°C 28.4°F-2.0°C 88% 1.3 mph N2.1 kmh N 2.5 mph4.0 kmh 30.21 in1023.0 mb 0.00 in0.0 mm 0.00 in0.0 mm 0.00 in0.0 mm
12:38 PM 31.5°F-0.3°C 28.4°F-2.0°C 88% 1.6 mph WNW2.6 kmh WNW 3.6 mph5.8 kmh 30.21 in1023.0 mb 0.00 in0.0 mm 0.00 in0.0 mm 0.00 in0.0 mm
12:44 PM 31.6°F-0.2°C 28.6°F-1.9°C 88% 1.1 mph N1.8 kmh N 2.2 mph3.5 kmh 30.21 in1023.0 mb 0.00 in0.0 mm 0.00 in0.0 mm 0.00 in0.0 mm
12:49 PM 31.6°F-0.2°C 28.6°F-1.9°C 88% 2.2 mph W3.5 kmh W 6.5 mph10.5 kmh 30.21 in1023.0 mb 0.00 in0.0 mm 0.00 in0.0 mm 0.00 in0.0 mm
12:54 PM 31.6°F-0.2°C 28.6°F-1.9°C 88% 2.9 mph N4.7 kmh N 6.5 mph10.5 kmh 30.21 in1023.0 mb 0.00 in0.0 mm 0.00 in0.0 mm 0.00 in0.0 mm
12:59 PM 31.6°F-0.2°C 28.6°F-1.9°C 88% 1.8 mph SW2.9 kmh SW 4.5 mph7.2 kmh 30.21 in1023.0 mb 0.00 in0.0 mm 0.00 in0.0 mm 0.00 in0.0 mm
01:04 PM 31.8°F-0.1°C 28.8°F-1.8°C 88% 2.0 mph WSW3.2 kmh WSW 4.3 mph6.9 kmh 30.21 in1023.0 mb 0.00 in0.0 mm 0.00 in0.0 mm 0.00 in0.0 mm
01:09 PM 32.0°F0.0°C 28.8°F-1.8°C 88% 2.7 mph WNW4.3 kmh WNW 4.7 mph7.6 kmh 30.21 in1023.0 mb 0.00 in0.0 mm 0.00 in0.0 mm 0.00 in0.0 mm
01:14 PM 32.2°F0.1°C 28.4°F-2.0°C 86% 2.0 mph W3.2 kmh W 5.1 mph8.2 kmh 30.21 in1023.0 mb 0.00 in0.0 mm 0.00 in0.0 mm 0.00 in0.0 mm
01:19 PM 32.0°F0.0°C 28.2°F-2.1°C 86% 1.3 mph NW2.1 kmh NW 3.6 mph5.8 kmh 30.20 in1022.7 mb 0.00 in0.0 mm 0.00 in0.0 mm 0.00 in0.0 mm
01:24 PM 32.0°F0.0°C 28.8°F-1.8°C 88% 1.6 mph N2.6 kmh N 2.7 mph4.3 kmh 30.20 in1022.7 mb 0.00 in0.0 mm 0.00 in0.0 mm 0.00 in0.0 mm
01:29 PM 32.2°F0.1°C 28.4°F-2.0°C 86% 2.0 mph N3.2 kmh N 3.4 mph5.5 kmh 30.20 in1022.7 mb 0.00 in0.0 mm 0.00 in0.0 mm 0.00 in0.0 mm
01:34 PM 32.2°F0.1°C 28.4°F-2.0°C 86% 1.1 mph WSW1.8 kmh WSW 2.7 mph4.3 kmh 30.20 in1022.7 mb 0.00 in0.0 mm 0.00 in0.0 mm 0.00 in0.0 mm
01:39 PM 32.2°F0.1°C 28.4°F-2.0°C 86% 0.7 mph WNW1.1 kmh WNW 2.0 mph3.2 kmh 30.20 in1022.7 mb 0.00 in0.0 mm 0.00 in0.0 mm 0.00 in0.0 mm
01:44 PM 32.2°F0.1°C 28.4°F-2.0°C 86% 2.0 mph WNW3.2 kmh WNW 3.1 mph5.0 kmh 30.20 in1022.7 mb 0.00 in0.0 mm 0.00 in0.0 mm 0.00 in0.0 mm
01:49 PM 32.4°F0.2°C 28.6°F-1.9°C 86% 3.1 mph N5.0 kmh N 4.7 mph7.6 kmh 30.20 in1022.7 mb 0.00 in0.0 mm 0.00 in0.0 mm 0.00 in0.0 mm
01:54 PM 32.4°F0.2°C 28.6°F-1.9°C 86% 3.4 mph NNW5.5 kmh NNW 5.6 mph9.0 kmh 30.20 in1022.7 mb 0.00 in0.0 mm 0.00 in0.0 mm 0.00 in0.0 mm
01:59 PM 32.4°F0.2°C 28.6°F-1.9°C 86% 1.6 mph W2.6 kmh W 2.5 mph4.0 kmh 30.20 in1022.7 mb 0.00 in0.0 mm 0.00 in0.0 mm 0.00 in0.0 mm
02:04 PM 32.4°F0.2°C 28.6°F-1.9°C 86% 1.3 mph NNE2.1 kmh NNE 2.9 mph4.7 kmh 30.20 in1022.7 mb 0.00 in0.0 mm 0.00 in0.0 mm 0.00 in0.0 mm
02:09 PM 32.5°F0.3°C 28.8°F-1.8°C 86% 4.5 mph NNW7.2 kmh NNW 9.4 mph15.1 kmh 30.20 in1022.7 mb 0.00 in0.0 mm 0.00 in0.0 mm 0.00 in0.0 mm
02:14 PM 32.4°F0.2°C 28.6°F-1.9°C 86% 2.7 mph N4.3 kmh N 4.3 mph6.9 kmh 30.20 in1022.7 mb 0.00 in0.0 mm 0.00 in0.0 mm 0.00 in0.0 mm
02:19 PM 32.4°F0.2°C 28.6°F-1.9°C 86% 4.3 mph N6.9 kmh N 7.2 mph11.6 kmh 30.20 in1022.7 mb 0.00 in0.0 mm 0.00 in0.0 mm 0.00 in0.0 mm
02:24 PM 32.4°F0.2°C 28.6°F-1.9°C 86% 3.4 mph NW5.5 kmh NW 7.2 mph11.6 kmh 30.20 in1022.7 mb 0.00 in0.0 mm 0.00 in0.0 mm 0.00 in0.0 mm
02:29 PM 32.5°F0.3°C 28.8°F-1.8°C 86% 2.9 mph N4.7 kmh N 4.7 mph7.6 kmh 30.20 in1022.7 mb 0.00 in0.0 mm 0.00 in0.0 mm 0.00 in0.0 mm
02:34 PM 32.5°F0.3°C 28.8°F-1.8°C 86% 2.7 mph NNW4.3 kmh NNW 6.0 mph9.7 kmh 30.20 in1022.7 mb 0.00 in0.0 mm 0.00 in0.0 mm 0.00 in0.0 mm
02:39 PM 32.5°F0.3°C 28.8°F-1.8°C 86% 3.4 mph N5.5 kmh N 6.5 mph10.5 kmh 30.20 in1022.7 mb 0.00 in0.0 mm 0.00 in0.0 mm 0.00 in0.0 mm
02:44 PM 32.5°F0.3°C 28.8°F-1.8°C 86% 0.9 mph NNE1.4 kmh NNE 2.2 mph3.5 kmh 30.20 in1022.7 mb 0.00 in0.0 mm 0.00 in0.0 mm 0.00 in0.0 mm
02:49 PM 32.7°F0.4°C 28.9°F-1.7°C 86% 3.4 mph W5.5 kmh W 8.5 mph13.7 kmh 30.20 in1022.7 mb 0.00 in0.0 mm 0.00 in0.0 mm 0.00 in0.0 mm
02:54 PM 32.7°F0.4°C 28.9°F-1.7°C 86% 2.2 mph WNW3.5 kmh WNW 5.1 mph8.2 kmh 30.20 in1022.7 mb 0.00 in0.0 mm 0.00 in0.0 mm 0.00 in0.0 mm
02:59 PM 32.7°F0.4°C 28.9°F-1.7°C 86% 2.0 mph NNW3.2 kmh NNW 4.7 mph7.6 kmh 30.20 in1022.7 mb 0.00 in0.0 mm 0.00 in0.0 mm 0.00 in0.0 mm
03:04 PM 32.7°F0.4°C 28.9°F-1.7°C 86% 2.9 mph N4.7 kmh N 7.4 mph11.9 kmh 30.21 in1023.0 mb 0.00 in0.0 mm 0.00 in0.0 mm 0.00 in0.0 mm
03:09 PM 32.5°F0.3°C 28.8°F-1.8°C 86% 1.1 mph N1.8 kmh N 3.4 mph5.5 kmh 30.21 in1023.0 mb 0.00 in0.0 mm 0.00 in0.0 mm 0.00 in0.0 mm
03:14 PM 32.5°F0.3°C 29.3°F-1.5°C 88% 2.2 mph N3.5 kmh N 5.4 mph8.7 kmh 30.21 in1023.0 mb 0.00 in0.0 mm 0.00 in0.0 mm 0.00 in0.0 mm
03:19 PM 32.4°F0.2°C 29.1°F-1.6°C 88% 3.8 mph NW6.1 kmh NW 8.7 mph14.0 kmh 30.21 in1023.0 mb 0.00 in0.0 mm 0.00 in0.0 mm 0.00 in0.0 mm
03:24 PM 32.4°F0.2°C 29.1°F-1.6°C 88% 6.7 mph N10.8 kmh N 9.8 mph15.8 kmh 30.21 in1023.0 mb 0.00 in0.0 mm 0.00 in0.0 mm 0.00 in0.0 mm
03:29 PM 32.0°F0.0°C 27.7°F-2.4°C 84% 6.7 mph N10.8 kmh N 11.0 mph17.7 kmh 30.22 in1023.4 mb 0.00 in0.0 mm 0.00 in0.0 mm 0.00 in0.0 mm
03:34 PM 31.1°F-0.5°C 25.9°F-3.4°C 81% 5.1 mph NNE8.2 kmh NNE 7.4 mph11.9 kmh 30.22 in1023.4 mb 0.00 in0.0 mm 0.00 in0.0 mm 0.00 in0.0 mm
03:39 PM 30.7°F-0.7°C 26.2°F-3.2°C 83% 3.6 mph NNE5.8 kmh NNE 5.4 mph8.7 kmh 30.23 in1023.7 mb 0.00 in0.0 mm 0.00 in0.0 mm 0.00 in0.0 mm
03:44 PM 30.6°F-0.8°C 26.1°F-3.3°C 83% 2.9 mph NE4.7 kmh NE 3.6 mph5.8 kmh 30.23 in1023.7 mb 0.00 in0.0 mm 0.00 in0.0 mm 0.00 in0.0 mm
03:49 PM 30.4°F-0.9°C 25.2°F-3.8°C 81% 3.1 mph N5.0 kmh N 4.9 mph7.9 kmh 30.24 in1024.0 mb 0.00 in0.0 mm 0.00 in0.0 mm 0.00 in0.0 mm
03:54 PM 30.2°F-1.0°C 25.2°F-3.8°C 81% 3.8 mph N6.1 kmh N 5.8 mph9.3 kmh 30.24 in1024.0 mb 0.00 in0.0 mm 0.00 in0.0 mm 0.00 in0.0 mm
03:59 PM 30.0°F-1.1°C 25.0°F-3.9°C 81% 3.1 mph N5.0 kmh N 5.4 mph8.7 kmh 30.24 in1024.0 mb 0.00 in0.0 mm 0.00 in0.0 mm 0.00 in0.0 mm
04:04 PM 30.2°F-1.0°C 25.2°F-3.8°C 81% 2.9 mph N4.7 kmh N 4.9 mph7.9 kmh 30.25 in1024.4 mb 0.00 in0.0 mm 0.00 in0.0 mm 0.00 in0.0 mm
04:09 PM 30.0°F-1.1°C 25.0°F-3.9°C 81% 3.1 mph NNE5.0 kmh NNE 4.5 mph7.2 kmh 30.25 in1024.4 mb 0.00 in0.0 mm 0.00 in0.0 mm 0.00 in0.0 mm
04:14 PM 30.0°F-1.1°C 24.6°F-4.1°C 80% 2.5 mph NNE4.0 kmh NNE 3.8 mph6.1 kmh 30.26 in1024.7 mb 0.00 in0.0 mm 0.00 in0.0 mm 0.00 in0.0 mm
04:19 PM 29.8°F-1.2°C 24.4°F-4.2°C 80% 1.6 mph N2.6 kmh N 2.7 mph4.3 kmh 30.25 in1024.4 mb 0.00 in0.0 mm 0.00 in0.0 mm 0.00 in0.0 mm
04:24 PM 29.8°F-1.2°C 24.4°F-4.2°C 80% 2.5 mph NE4.0 kmh NE 4.0 mph6.4 kmh 30.26 in1024.7 mb 0.00 in0.0 mm 0.00 in0.0 mm 0.00 in0.0 mm
04:29 PM 29.8°F-1.2°C 24.1°F-4.4°C 79% 2.5 mph N4.0 kmh N 4.9 mph7.9 kmh 30.26 in1024.7 mb 0.00 in0.0 mm 0.00 in0.0 mm 0.00 in0.0 mm
04:34 PM 29.5°F-1.4°C 23.7°F-4.6°C 79% 2.9 mph NE4.7 kmh NE 3.8 mph6.1 kmh 30.26 in1024.7 mb 0.00 in0.0 mm 0.00 in0.0 mm 0.00 in0.0 mm
04:39 PM 29.5°F-1.4°C 23.5°F-4.7°C 78% 2.5 mph 4.0 kmh 3.8 mph6.1 kmh 30.27 in1025.1 mb 0.00 in0.0 mm 0.00 in0.0 mm 0.00 in0.0 mm
04:44 PM 29.5°F-1.4°C 23.5°F-4.7°C 78% 2.0 mph NE3.2 kmh NE 2.9 mph4.7 kmh 30.27 in1025.1 mb 0.00 in0.0 mm 0.00 in0.0 mm 0.00 in0.0 mm
04:49 PM 29.3°F-1.5°C 23.4°F-4.8°C 78% 1.8 mph N2.9 kmh N 4.3 mph6.9 kmh 30.27 in1025.1 mb 0.00 in0.0 mm 0.00 in0.0 mm 0.00 in0.0 mm
04:54 PM 29.3°F-1.5°C 22.6°F-5.2°C 76% 2.9 mph NNE4.7 kmh NNE 5.8 mph9.3 kmh 30.27 in1025.1 mb 0.00 in0.0 mm 0.00 in0.0 mm 0.00 in0.0 mm
04:59 PM 29.1°F-1.6°C 23.2°F-4.9°C 78% 4.5 mph NNE7.2 kmh NNE 6.5 mph10.5 kmh 30.27 in1025.1 mb 0.00 in0.0 mm 0.00 in0.0 mm 0.00 in0.0 mm
05:04 PM 28.9°F-1.7°C 22.3°F-5.4°C 76% 2.5 mph NNE4.0 kmh NNE 3.8 mph6.1 kmh 30.27 in1025.1 mb 0.00 in0.0 mm 0.00 in0.0 mm 0.00 in0.0 mm
05:09 PM 28.9°F-1.7°C 23.0°F-5.0°C 78% 2.5 mph N4.0 kmh N 3.4 mph5.5 kmh 30.28 in1025.4 mb 0.00 in0.0 mm 0.00 in0.0 mm 0.00 in0.0 mm
05:14 PM 28.8°F-1.8°C 22.8°F-5.1°C 78% 2.5 mph N4.0 kmh N 4.3 mph6.9 kmh 30.28 in1025.4 mb 0.00 in0.0 mm 0.00 in0.0 mm 0.00 in0.0 mm
05:19 PM 28.6°F-1.9°C 22.6°F-5.2°C 78% 2.0 mph NNE3.2 kmh NNE 2.7 mph4.3 kmh 30.28 in1025.4 mb 0.00 in0.0 mm 0.00 in0.0 mm 0.00 in0.0 mm
05:24 PM 28.4°F-2.0°C 21.7°F-5.7°C 76% 3.6 mph N5.8 kmh N 5.4 mph8.7 kmh 30.29 in1025.7 mb 0.00 in0.0 mm 0.00 in0.0 mm 0.00 in0.0 mm
05:29 PM 28.4°F-2.0°C 21.7°F-5.7°C 76% 4.3 mph N6.9 kmh N 6.7 mph10.8 kmh 30.29 in1025.7 mb 0.00 in0.0 mm 0.00 in0.0 mm 0.00 in0.0 mm
05:34 PM 28.4°F-2.0°C 21.7°F-5.7°C 76% 2.9 mph NE4.7 kmh NE 4.3 mph6.9 kmh 30.29 in1025.7 mb 0.00 in0.0 mm 0.00 in0.0 mm 0.00 in0.0 mm
05:39 PM 28.4°F-2.0°C 21.7°F-5.7°C 76% 2.5 mph N4.0 kmh N 4.3 mph6.9 kmh 30.29 in1025.7 mb 0.00 in0.0 mm 0.00 in0.0 mm 0.00 in0.0 mm
05:44 PM 28.2°F-2.1°C 21.6°F-5.8°C 76% 2.5 mph NE4.0 kmh NE 4.5 mph7.2 kmh 30.29 in1025.7 mb 0.00 in0.0 mm 0.00 in0.0 mm 0.00 in0.0 mm
05:49 PM 28.2°F-2.1°C 21.6°F-5.8°C 76% 2.2 mph NNE3.5 kmh NNE 3.6 mph5.8 kmh 30.29 in1025.7 mb 0.00 in0.0 mm 0.00 in0.0 mm 0.00 in0.0 mm
05:54 PM 28.0°F-2.2°C 21.4°F-5.9°C 76% 2.0 mph NNE3.2 kmh NNE 3.1 mph5.0 kmh 30.29 in1025.7 mb 0.00 in0.0 mm 0.00 in0.0 mm 0.00 in0.0 mm
05:59 PM 28.0°F-2.2°C 21.4°F-5.9°C 76% 2.2 mph NNE3.5 kmh NNE 3.4 mph5.5 kmh 30.29 in1025.7 mb 0.00 in0.0 mm 0.00 in0.0 mm 0.00 in0.0 mm
06:04 PM 27.9°F-2.3°C 21.0°F-6.1°C 75% 2.2 mph NNE3.5 kmh NNE 3.6 mph5.8 kmh 30.29 in1025.7 mb 0.00 in0.0 mm 0.00 in0.0 mm 0.00 in0.0 mm
06:09 PM 27.9°F-2.3°C 21.2°F-6.0°C 76% 2.0 mph NE3.2 kmh NE 3.4 mph5.5 kmh 30.29 in1025.7 mb 0.00 in0.0 mm 0.00 in0.0 mm 0.00 in0.0 mm
06:14 PM 27.9°F-2.3°C 21.2°F-6.0°C 76% 2.2 mph NNE3.5 kmh NNE 4.0 mph6.4 kmh 30.29 in1025.7 mb 0.00 in0.0 mm 0.00 in0.0 mm 0.00 in0.0 mm
06:19 PM 27.7°F-2.4°C 20.8°F-6.2°C 75% 2.0 mph NE3.2 kmh NE 3.4 mph5.5 kmh 30.30 in1026.1 mb 0.00 in0.0 mm 0.00 in0.0 mm 0.00 in0.0 mm
06:24 PM 27.7°F-2.4°C 20.8°F-6.2°C 75% 1.1 mph NNE1.8 kmh NNE 1.8 mph2.9 kmh 30.30 in1026.1 mb 0.00 in0.0 mm 0.00 in0.0 mm 0.00 in0.0 mm
06:29 PM 27.5°F-2.5°C 20.7°F-6.3°C 75% 2.7 mph NNE4.3 kmh NNE 3.6 mph5.8 kmh 30.31 in1026.4 mb 0.00 in0.0 mm 0.00 in0.0 mm 0.00 in0.0 mm
06:34 PM 27.5°F-2.5°C 20.7°F-6.3°C 75% 2.2 mph N3.5 kmh N 3.6 mph5.8 kmh 30.31 in1026.4 mb 0.00 in0.0 mm 0.00 in0.0 mm 0.00 in0.0 mm
06:39 PM 27.3°F-2.6°C 20.5°F-6.4°C 75% 2.0 mph N3.2 kmh N 3.6 mph5.8 kmh 30.32 in1026.8 mb 0.00 in0.0 mm 0.00 in0.0 mm 0.00 in0.0 mm
06:44 PM 27.3°F-2.6°C 20.1°F-6.6°C 74% 2.2 mph NE3.5 kmh NE 4.3 mph6.9 kmh 30.32 in1026.8 mb 0.00 in0.0 mm 0.00 in0.0 mm 0.00 in0.0 mm
06:49 PM 27.3°F-2.6°C 20.5°F-6.4°C 75% 1.8 mph NE2.9 kmh NE 2.7 mph4.3 kmh 30.32 in1026.8 mb 0.00 in0.0 mm 0.00 in0.0 mm 0.00 in0.0 mm
06:54 PM 27.3°F-2.6°C 20.8°F-6.2°C 76% 2.5 mph NE4.0 kmh NE 3.1 mph5.0 kmh 30.32 in1026.8 mb 0.00 in0.0 mm 0.00 in0.0 mm 0.00 in0.0 mm
06:59 PM 27.3°F-2.6°C 20.5°F-6.4°C 75% 2.7 mph NNE4.3 kmh NNE 4.0 mph6.4 kmh 30.33 in1027.1 mb 0.00 in0.0 mm 0.00 in0.0 mm 0.00 in0.0 mm
07:04 PM 27.3°F-2.6°C 20.5°F-6.4°C 75% 2.0 mph N3.2 kmh N 2.7 mph4.3 kmh 30.33 in1027.1 mb 0.00 in0.0 mm 0.00 in0.0 mm 0.00 in0.0 mm
07:09 PM 27.3°F-2.6°C 20.5°F-6.4°C 75% 2.5 mph NE4.0 kmh NE 4.3 mph6.9 kmh 30.33 in1027.1 mb 0.00 in0.0 mm 0.00 in0.0 mm 0.00 in0.0 mm
07:14 PM 27.1°F-2.7°C 19.9°F-6.7°C 74% 2.5 mph NE4.0 kmh NE 3.4 mph5.5 kmh 30.33 in1027.1 mb 0.00 in0.0 mm 0.00 in0.0 mm 0.00 in0.0 mm
07:19 PM 27.1°F-2.7°C 20.3°F-6.5°C 75% 2.0 mph ENE3.2 kmh ENE 2.9 mph4.7 kmh 30.33 in1027.1 mb 0.00 in0.0 mm 0.00 in0.0 mm 0.00 in0.0 mm
07:24 PM 27.1°F-2.7°C 20.3°F-6.5°C 75% 2.0 mph ENE3.2 kmh ENE 2.7 mph4.3 kmh 30.34 in1027.4 mb 0.00 in0.0 mm 0.00 in0.0 mm 0.00 in0.0 mm
07:29 PM 27.3°F-2.6°C 20.8°F-6.2°C 76% 2.0 mph ENE3.2 kmh ENE 3.1 mph5.0 kmh 30.34 in1027.4 mb 0.00 in0.0 mm 0.00 in0.0 mm 0.00 in0.0 mm
07:34 PM 27.1°F-2.7°C 19.9°F-6.7°C 74% 2.2 mph NE3.5 kmh NE 3.4 mph5.5 kmh 30.34 in1027.4 mb 0.00 in0.0 mm 0.00 in0.0 mm 0.00 in0.0 mm
07:39 PM 27.1°F-2.7°C 20.3°F-6.5°C 75% 1.3 mph NE2.1 kmh NE 2.0 mph3.2 kmh 30.34 in1027.4 mb 0.00 in0.0 mm 0.00 in0.0 mm 0.00 in0.0 mm
07:44 PM 27.1°F-2.7°C 20.3°F-6.5°C 75% 2.5 mph NE4.0 kmh NE 3.6 mph5.8 kmh 30.34 in1027.4 mb 0.00 in0.0 mm 0.00 in0.0 mm 0.00 in0.0 mm
07:49 PM 27.0°F-2.8°C 19.8°F-6.8°C 74% 1.8 mph NE2.9 kmh NE 2.7 mph4.3 kmh 30.34 in1027.4 mb 0.00 in0.0 mm 0.00 in0.0 mm 0.00 in0.0 mm
07:54 PM 27.0°F-2.8°C 19.8°F-6.8°C 74% 2.7 mph NNE4.3 kmh NNE 3.6 mph5.8 kmh 30.34 in1027.4 mb 0.00 in0.0 mm 0.00 in0.0 mm 0.00 in0.0 mm
07:59 PM 27.0°F-2.8°C 19.8°F-6.8°C 74% 2.7 mph NNE4.3 kmh NNE 4.5 mph7.2 kmh 30.34 in1027.4 mb 0.00 in0.0 mm 0.00 in0.0 mm 0.00 in0.0 mm
08:04 PM 27.0°F-2.8°C 19.4°F-7.0°C 73% 1.8 mph NE2.9 kmh NE 2.7 mph4.3 kmh 30.34 in1027.4 mb 0.00 in0.0 mm 0.00 in0.0 mm 0.00 in0.0 mm
08:09 PM 26.8°F-2.9°C 19.2°F-7.1°C 73% 1.8 mph ENE2.9 kmh ENE 2.7 mph4.3 kmh 30.34 in1027.4 mb 0.00 in0.0 mm 0.00 in0.0 mm 0.00 in0.0 mm
08:14 PM 26.8°F-2.9°C 19.6°F-6.9°C 74% 1.1 mph NE1.8 kmh NE 1.8 mph2.9 kmh 30.34 in1027.4 mb 0.00 in0.0 mm 0.00 in0.0 mm 0.00 in0.0 mm
08:19 PM 26.8°F-2.9°C 19.6°F-6.9°C 74% 2.0 mph NE3.2 kmh NE 3.1 mph5.0 kmh 30.34 in1027.4 mb 0.00 in0.0 mm 0.00 in0.0 mm 0.00 in0.0 mm
08:24 PM 26.8°F-2.9°C 19.6°F-6.9°C 74% 2.2 mph E3.5 kmh E 2.9 mph4.7 kmh 30.35 in1027.8 mb 0.00 in0.0 mm 0.00 in0.0 mm 0.00 in0.0 mm
08:29 PM 27.0°F-2.8°C 20.1°F-6.6°C 75% 1.3 mph NE2.1 kmh NE 2.0 mph3.2 kmh 30.35 in1027.8 mb 0.00 in0.0 mm 0.00 in0.0 mm 0.00 in0.0 mm
08:34 PM 26.8°F-2.9°C 19.6°F-6.9°C 74% 2.0 mph NE3.2 kmh NE 2.7 mph4.3 kmh 30.35 in1027.8 mb 0.00 in0.0 mm 0.00 in0.0 mm 0.00 in0.0 mm
08:39 PM 26.8°F-2.9°C 19.6°F-6.9°C 74% 1.8 mph ENE2.9 kmh ENE 2.5 mph4.0 kmh 30.35 in1027.8 mb 0.00 in0.0 mm 0.00 in0.0 mm 0.00 in0.0 mm
08:44 PM 26.6°F-3.0°C 19.0°F-7.2°C 73% 1.8 mph NE2.9 kmh NE 2.7 mph4.3 kmh 30.36 in1028.1 mb 0.00 in0.0 mm 0.00 in0.0 mm 0.00 in0.0 mm
08:49 PM 26.8°F-2.9°C 19.6°F-6.9°C 74% 1.3 mph ENE2.1 kmh ENE 2.2 mph3.5 kmh 30.35 in1027.8 mb 0.00 in0.0 mm 0.00 in0.0 mm 0.00 in0.0 mm
08:54 PM 26.8°F-2.9°C 19.2°F-7.1°C 73% 1.8 mph ENE2.9 kmh ENE 3.1 mph5.0 kmh 30.36 in1028.1 mb 0.00 in0.0 mm 0.00 in0.0 mm 0.00 in0.0 mm
08:59 PM 26.8°F-2.9°C 19.2°F-7.1°C 73% 2.5 mph NE4.0 kmh NE 3.1 mph5.0 kmh 30.36 in1028.1 mb 0.00 in0.0 mm 0.00 in0.0 mm 0.00 in0.0 mm
09:04 PM 26.6°F-3.0°C 19.4°F-7.0°C 74% 1.8 mph NE2.9 kmh NE 2.7 mph4.3 kmh 30.36 in1028.1 mb 0.00 in0.0 mm 0.00 in0.0 mm 0.00 in0.0 mm
09:09 PM 26.6°F-3.0°C 19.4°F-7.0°C 74% 2.2 mph ENE3.5 kmh ENE 3.6 mph5.8 kmh 30.36 in1028.1 mb 0.00 in0.0 mm 0.00 in0.0 mm 0.00 in0.0 mm
09:14 PM 26.4°F-3.1°C 19.2°F-7.1°C 74% 2.0 mph ENE3.2 kmh ENE 2.7 mph4.3 kmh 30.36 in1028.1 mb 0.00 in0.0 mm 0.00 in0.0 mm 0.00 in0.0 mm
09:19 PM 26.4°F-3.1°C 19.6°F-6.9°C 75% 2.2 mph NE3.5 kmh NE 4.7 mph7.6 kmh 30.37 in1028.4 mb 0.00 in0.0 mm 0.00 in0.0 mm 0.00 in0.0 mm
09:24 PM 26.4°F-3.1°C 19.6°F-6.9°C 75% 2.7 mph NE4.3 kmh NE 4.5 mph7.2 kmh 30.37 in1028.4 mb 0.00 in0.0 mm 0.00 in0.0 mm 0.00 in0.0 mm
09:29 PM 26.2°F-3.2°C 19.4°F-7.0°C 75% 2.0 mph NE3.2 kmh NE 2.7 mph4.3 kmh 30.37 in1028.4 mb 0.00 in0.0 mm 0.00 in0.0 mm 0.00 in0.0 mm
09:34 PM 26.2°F-3.2°C 19.4°F-7.0°C 75% 1.8 mph ENE2.9 kmh ENE 2.9 mph4.7 kmh 30.37 in1028.4 mb 0.00 in0.0 mm 0.00 in0.0 mm 0.00 in0.0 mm
09:39 PM 26.2°F-3.2°C 19.4°F-7.0°C 75% 3.1 mph E5.0 kmh E 4.3 mph6.9 kmh 30.37 in1028.4 mb 0.00 in0.0 mm 0.00 in0.0 mm 0.00 in0.0 mm
09:44 PM 26.1°F-3.3°C 19.2°F-7.1°C 75% 1.6 mph SE2.6 kmh SE 2.7 mph4.3 kmh 30.37 in1028.4 mb 0.00 in0.0 mm 0.00 in0.0 mm 0.00 in0.0 mm
09:49 PM 26.2°F-3.2°C 19.4°F-7.0°C 75% 1.8 mph ENE2.9 kmh ENE 2.0 mph3.2 kmh 30.37 in1028.4 mb 0.00 in0.0 mm 0.00 in0.0 mm 0.00 in0.0 mm
09:54 PM 26.2°F-3.2°C 19.4°F-7.0°C 75% 1.8 mph ENE2.9 kmh ENE 2.9 mph4.7 kmh 30.36 in1028.1 mb 0.00 in0.0 mm 0.00 in0.0 mm 0.00 in0.0 mm
09:59 PM 26.1°F-3.3°C 19.2°F-7.1°C 75% 1.8 mph ENE2.9 kmh ENE 3.4 mph5.5 kmh 30.36 in1028.1 mb 0.00 in0.0 mm 0.00 in0.0 mm 0.00 in0.0 mm
10:04 PM 25.9°F-3.4°C 19.0°F-7.2°C 75% 1.6 mph E2.6 kmh E 2.2 mph3.5 kmh 30.36 in1028.1 mb 0.00 in0.0 mm 0.00 in0.0 mm 0.00 in0.0 mm
10:09 PM 25.9°F-3.4°C 18.7°F-7.4°C 74% 1.6 mph ENE2.6 kmh ENE 2.5 mph4.0 kmh 30.36 in1028.1 mb 0.00 in0.0 mm 0.00 in0.0 mm 0.00 in0.0 mm
10:14 PM 25.9°F-3.4°C 19.0°F-7.2°C 75% 1.6 mph E2.6 kmh E 1.8 mph2.9 kmh 30.36 in1028.1 mb 0.00 in0.0 mm 0.00 in0.0 mm 0.00 in0.0 mm
10:19 PM 25.9°F-3.4°C 19.0°F-7.2°C 75% 1.6 mph E2.6 kmh E 2.2 mph3.5 kmh 30.36 in1028.1 mb 0.00 in0.0 mm 0.00 in0.0 mm 0.00 in0.0 mm
10:24 PM 25.9°F-3.4°C 19.0°F-7.2°C 75% 1.8 mph ESE2.9 kmh ESE 2.0 mph3.2 kmh 30.37 in1028.4 mb 0.00 in0.0 mm 0.00 in0.0 mm 0.00 in0.0 mm
10:29 PM 25.7°F-3.5°C 18.9°F-7.3°C 75% 1.1 mph E1.8 kmh E 1.6 mph2.6 kmh 30.37 in1028.4 mb 0.00 in0.0 mm 0.00 in0.0 mm 0.00 in0.0 mm
10:34 PM 25.7°F-3.5°C 18.9°F-7.3°C 75% 1.3 mph E2.1 kmh E 1.8 mph2.9 kmh 30.37 in1028.4 mb 0.00 in0.0 mm 0.00 in0.0 mm 0.00 in0.0 mm
10:39 PM 25.5°F-3.6°C 19.0°F-7.2°C 76% 1.6 mph E2.6 kmh E 1.8 mph2.9 kmh 30.37 in1028.4 mb 0.00 in0.0 mm 0.00 in0.0 mm 0.00 in0.0 mm
10:44 PM 25.5°F-3.6°C 19.0°F-7.2°C 76% 1.3 mph E2.1 kmh E 1.6 mph2.6 kmh 30.37 in1028.4 mb 0.00 in0.0 mm 0.00 in0.0 mm 0.00 in0.0 mm
10:49 PM 25.0°F-3.9°C 18.1°F-7.7°C 75% 1.3 mph E2.1 kmh E 1.8 mph2.9 kmh 30.37 in1028.4 mb 0.00 in0.0 mm 0.00 in0.0 mm 0.00 in0.0 mm
10:54 PM 25.0°F-3.9°C 18.5°F-7.5°C 76% 1.6 mph E2.6 kmh E 1.8 mph2.9 kmh 30.37 in1028.4 mb 0.00 in0.0 mm 0.00 in0.0 mm 0.00 in0.0 mm
10:59 PM 24.8°F-4.0°C 18.3°F-7.6°C 76% 1.6 mph E2.6 kmh E 1.8 mph2.9 kmh 30.37 in1028.4 mb 0.00 in0.0 mm 0.00 in0.0 mm 0.00 in0.0 mm
11:04 PM 24.6°F-4.1°C 18.1°F-7.7°C 76% 1.3 mph E2.1 kmh E 1.8 mph2.9 kmh 30.37 in1028.4 mb 0.00 in0.0 mm 0.00 in0.0 mm 0.00 in0.0 mm
11:09 PM 24.6°F-4.1°C 18.7°F-7.4°C 78% 1.8 mph E2.9 kmh E 2.0 mph3.2 kmh 30.37 in1028.4 mb 0.00 in0.0 mm 0.00 in0.0 mm 0.00 in0.0 mm
11:14 PM 24.4°F-4.2°C 18.0°F-7.8°C 76% 2.0 mph E3.2 kmh E 2.2 mph3.5 kmh 30.37 in1028.4 mb 0.00 in0.0 mm 0.00 in0.0 mm 0.00 in0.0 mm
11:19 PM 24.3°F-4.3°C 17.8°F-7.9°C 76% 1.6 mph E2.6 kmh E 2.0 mph3.2 kmh 30.37 in1028.4 mb 0.00 in0.0 mm 0.00 in0.0 mm 0.00 in0.0 mm
11:24 PM 24.3°F-4.3°C 18.3°F-7.6°C 78% 2.0 mph E3.2 kmh E 2.2 mph3.5 kmh 30.37 in1028.4 mb 0.00 in0.0 mm 0.00 in0.0 mm 0.00 in0.0 mm
11:29 PM 24.3°F-4.3°C 18.3°F-7.6°C 78% 1.6 mph ESE2.6 kmh ESE 1.8 mph2.9 kmh 30.38 in1028.8 mb 0.00 in0.0 mm 0.00 in0.0 mm 0.00 in0.0 mm
11:34 PM 24.1°F-4.4°C 18.1°F-7.7°C 78% 1.8 mph ESE2.9 kmh ESE 2.2 mph3.5 kmh 30.38 in1028.8 mb 0.00 in0.0 mm 0.00 in0.0 mm 0.00 in0.0 mm
11:39 PM 23.9°F-4.5°C 18.0°F-7.8°C 78% 0.9 mph ENE1.4 kmh ENE 1.3 mph2.1 kmh 30.38 in1028.8 mb 0.00 in0.0 mm 0.00 in0.0 mm 0.00 in0.0 mm
11:44 PM 23.7°F-4.6°C 17.8°F-7.9°C 78% 1.3 mph E2.1 kmh E 1.8 mph2.9 kmh 30.38 in1028.8 mb 0.00 in0.0 mm 0.00 in0.0 mm 0.00 in0.0 mm
11:49 PM 23.5°F-4.7°C 17.8°F-7.9°C 78% 1.3 mph E2.1 kmh E 1.6 mph2.6 kmh 30.38 in1028.8 mb 0.00 in0.0 mm 0.00 in0.0 mm 0.00 in0.0 mm
11:54 PM 23.7°F-4.6°C 18.1°F-7.7°C 79% 1.8 mph E2.9 kmh E 2.0 mph3.2 kmh 30.38 in1028.8 mb 0.00 in0.0 mm 0.00 in0.0 mm 0.00 in0.0 mm
11:59 PM 23.5°F-4.7°C 18.0°F-7.8°C 79% 1.3 mph SE2.1 kmh SE 1.6 mph2.6 kmh 30.39 in1029.1 mb 0.00 in0.0 mm 0.00 in0.0 mm 0.00 in0.0 mm